Time;durP1;ratioP1;P1;durP2;ratioP2;P2;SDS_P1;SDS_P2;PMS_P1;PMS_P2;Temp;Humidity;BMP_temperature;BMP_pressure;BME280_temperature;BME280_humidity;BME280_pressure;Samples;Min_cycle;Max_cycle;Signal;HPM_P1;HPM_P2
2023/04/29 00:01:37;;;;;;;6.80;3.50;;;;;;;8.12;46.81;100651.41;104853;1254;60520;-48
2023/04/29 00:04:04;;;;;;;4.70;1.40;;;;;;;8.11;46.84;100649.03;104736;1258;61001;-49
2023/04/29 00:06:31;;;;;;;6.30;3.30;;;;;;;8.09;46.89;100650.00;104827;1254;68886;-48
2023/04/29 00:08:58;;;;;;;6.90;3.60;;;;;;;8.09;46.92;100648.09;104845;1258;63294;-48
2023/04/29 00:11:25;;;;;;;4.60;1.70;;;;;;;8.09;46.90;100650.69;107160;1254;66180;-48
2023/04/29 00:13:52;;;;;;;7.10;3.70;;;;;;;8.09;46.92;100650.71;104903;1256;60790;-48
2023/04/29 00:16:19;;;;;;;6.20;3.10;;;;;;;8.09;46.90;100646.91;104982;1254;60529;-48
2023/04/29 00:18:46;;;;;;;4.60;1.10;;;;;;;8.07;46.84;100646.48;104794;1259;67109;-46
2023/04/29 00:21:13;;;;;;;7.50;3.20;;;;;;;8.05;46.90;100648.52;106205;1254;63733;-46
2023/04/29 00:23:40;;;;;;;8.80;3.20;;;;;;;8.04;46.97;100645.45;104804;1254;65948;-48
2023/04/29 00:26:07;;;;;;;4.60;1.40;;;;;;;8.02;47.12;100640.36;105873;1254;60643;-48
2023/04/29 00:28:34;;;;;;;5.00;2.50;;;;;;;7.98;47.26;100642.52;105650;1259;60609;-47
2023/04/29 00:31:01;;;;;;;9.40;2.90;;;;;;;7.94;47.19;100646.95;104848;1259;67845;-47
2023/04/29 00:33:28;;;;;;;5.50;1.30;;;;;;;7.92;47.10;100646.38;104681;1259;62409;-47
2023/04/29 00:35:55;;;;;;;6.50;2.80;;;;;;;7.91;47.04;100646.66;104879;1257;66445;-46
2023/04/29 00:38:23;;;;;;;4.50;2.10;;;;;;;7.89;46.98;100647.45;104837;1254;60454;-47
2023/04/29 00:40:50;;;;;;;3.80;0.90;;;;;;;7.87;46.92;100646.19;104752;1259;62243;-47
2023/04/29 00:43:17;;;;;;;7.00;2.60;;;;;;;7.84;46.91;100647.08;104828;1254;67372;-47
2023/04/29 00:45:45;;;;;;;5.40;2.30;;;;;;;7.81;47.09;100649.20;104732;1256;64323;-47
2023/04/29 00:48:14;;;;;;;7.10;1.40;;;;;;;7.79;47.18;100646.54;105574;1254;66506;-47
2023/04/29 00:50:41;;;;;;;6.20;2.70;;;;;;;7.76;47.35;100646.02;104715;1259;61683;-47
2023/04/29 00:53:11;;;;;;;4.70;2.30;;;;;;;7.74;47.61;100647.55;104886;1254;60498;-48
2023/04/29 00:55:38;;;;;;;5.40;2.20;;;;;;;7.72;47.78;100648.58;105512;1258;66089;-48
2023/04/29 00:58:06;;;;;;;7.20;3.00;;;;;;;7.71;48.12;100651.45;106429;1254;64116;-48
2023/04/29 01:00:33;;;;;;;3.70;1.10;;;;;;;7.69;48.45;100653.09;105747;1259;65706;-46
2023/04/29 01:03:00;;;;;;;6.30;2.70;;;;;;;7.67;48.64;100649.92;104939;1257;60410;-48
2023/04/29 01:05:27;;;;;;;9.80;3.40;;;;;;;7.65;48.83;100650.41;104776;1253;60731;-47
2023/04/29 01:08:20;;;;;;;7.00;2.80;;;;;;;7.64;49.06;100655.36;104858;1258;65998;-47
2023/04/29 01:10:54;;;;;;;5.70;2.60;;;;;;;7.62;49.30;100654.08;105107;1254;63765;-48
2023/04/29 01:13:45;;;;;;;3.50;0.80;;;;;;;7.61;49.52;100653.42;105096;1254;66262;-48
2023/04/29 01:16:19;;;;;;;5.30;2.30;;;;;;;7.60;49.69;100655.91;104699;1259;60451;-47
2023/04/29 01:18:53;;;;;;;6.20;2.90;;;;;;;7.60;49.78;100660.64;104680;1259;60450;-47
2023/04/29 01:21:24;;;;;;;7.10;2.30;;;;;;;7.60;49.96;100664.66;104859;1254;67368;-46
2023/04/29 01:23:54;;;;;;;3.20;1.10;;;;;;;7.61;50.13;100663.36;104594;1254;64461;-49
2023/04/29 01:26:24;;;;;;;5.10;1.00;;;;;;;7.62;50.16;100661.90;104736;1255;66320;-49
2023/04/29 01:29:32;;;;;;;5.50;2.40;;;;;;;7.62;50.16;100662.59;104606;1260;60630;-48
2023/04/29 01:32:10;;;;;;;5.80;1.60;;;;;;;7.62;50.36;100662.27;104890;1259;60385;-47
2023/04/29 01:34:48;;;;;;;3.00;0.80;;;;;;;7.61;50.45;100663.90;108720;1254;66230;-49
2023/04/29 01:37:15;;;;;;;3.00;0.80;;;;;;;7.61;50.57;100664.59;106297;1259;63203;-48
2023/04/29 01:39:49;;;;;;;7.30;2.30;;;;;;;7.61;50.66;100668.26;105408;1254;66194;-47
2023/04/29 01:42:30;;;;;;;5.10;2.00;;;;;;;7.61;50.80;100669.66;104781;1253;60477;-47
2023/04/29 01:44:59;;;;;;;5.10;1.80;;;;;;;7.62;50.97;100678.17;104782;1255;59203;-47
2023/04/29 01:47:26;;;;;;;4.60;1.10;;;;;;;7.61;51.09;100687.64;104992;1260;67839;-47
2023/04/29 01:49:53;;;;;;;8.50;2.70;;;;;;;7.59;51.35;100692.64;104704;1254;65022;-47
2023/04/29 01:52:22;;;;;;;7.10;2.50;;;;;;;7.57;51.76;100684.44;105237;1259;65046;-46
2023/04/29 01:54:53;;;;;;;5.20;0.80;;;;;;;7.57;52.15;100683.39;104815;1255;60632;-46
2023/04/29 01:57:20;;;;;;;4.40;2.10;;;;;;;7.57;52.26;100684.42;107357;1253;59206;-47
2023/04/29 01:59:59;;;;;;;4.90;1.30;;;;;;;7.57;52.21;100688.39;104843;1259;67340;-47
2023/04/29 02:02:48;;;;;;;5.90;2.70;;;;;;;7.56;52.42;100688.69;105336;1260;63745;-47
2023/04/29 02:05:25;;;;;;;4.30;1.00;;;;;;;7.55;52.41;100689.79;107675;1258;65246;-47
2023/04/29 02:07:55;;;;;;;4.50;2.30;;;;;;;7.54;52.40;100690.56;105814;1259;60534;-48
2023/04/29 02:10:22;;;;;;;5.80;2.40;;;;;;;7.53;52.42;100690.77;104726;1257;61735;-47
2023/04/29 02:12:53;;;;;;;5.20;2.40;;;;;;;7.52;52.46;100691.20;104802;1254;67277;-47
2023/04/29 02:15:20;;;;;;;7.10;2.60;;;;;;;7.51;52.61;100686.17;105240;1252;62896;-47
2023/04/29 02:17:47;;;;;;;3.30;1.20;;;;;;;7.50;52.60;100687.81;106059;1254;66025;-47
2023/04/29 02:20:14;;;;;;;6.30;2.30;;;;;;;7.48;52.61;100693.67;104722;1254;60353;-48
2023/04/29 02:22:42;;;;;;;7.40;2.50;;;;;;;7.46;52.50;100694.39;104867;1255;60450;-49
2023/04/29 02:25:10;;;;;;;4.10;1.80;;;;;;;7.44;52.59;100698.68;107040;1254;66971;-48
2023/04/29 02:27:36;;;;;;;7.50;2.20;;;;;;;7.39;52.71;100705.59;104898;1260;63881;-48
2023/04/29 02:30:05;;;;;;;6.20;2.50;;;;;;;7.37;52.80;100707.15;105415;1254;318007;-48
2023/04/29 02:34:12;;;;;;;2.90;0.70;;;;;;;7.17;53.54;100707.15;101872;1290;599997;-47
2023/04/29 02:36:39;;;;;;;5.50;2.90;;;;;;;7.32;53.11;100706.91;103947;1267;59745;-47
2023/04/29 02:39:06;;;;;;;5.10;1.10;;;;;;;7.30;53.18;100708.06;104039;1266;59332;-46
2023/04/29 02:41:33;;;;;;;4.60;1.80;;;;;;;7.32;53.17;100708.68;104711;1267;65569;-47
2023/04/29 02:44:00;;;;;;;2.90;0.40;;;;;;;7.38;53.24;100708.44;104636;1264;62723;-48
2023/04/29 02:46:27;;;;;;;6.20;2.20;;;;;;;7.46;53.19;100711.28;104783;1264;66790;-47
2023/04/29 02:48:55;;;;;;;5.80;2.00;;;;;;;7.53;53.12;100716.27;104475;1258;59021;-47
2023/04/29 02:51:22;;;;;;;2.10;0.60;;;;;;;7.58;53.19;100718.23;104841;1257;59267;-47
2023/04/29 02:53:49;;;;;;;6.30;2.00;;;;;;;7.62;53.06;100718.64;104390;1258;65926;-47
2023/04/29 02:56:16;;;;;;;7.60;2.90;;;;;;;7.63;53.00;100722.25;104552;1257;63466;-48
2023/04/29 02:58:43;;;;;;;7.80;2.80;;;;;;;7.63;53.07;100728.17;105007;1257;66429;-48
2023/04/29 03:01:10;;;;;;;5.90;1.30;;;;;;;7.62;53.08;100728.10;104471;1258;59676;-48
2023/04/29 03:03:37;;;;;;;6.20;2.60;;;;;;;7.58;53.13;100732.69;104594;1260;59350;-49
2023/04/29 03:06:05;;;;;;;8.50;1.20;;;;;;;7.54;53.16;100736.44;104463;1262;66534;-49
2023/04/29 03:08:32;;;;;;;4.30;1.40;;;;;;;7.50;53.26;100741.39;104630;1257;63934;-51
2023/04/29 03:10:59;;;;;;;6.30;2.30;;;;;;;7.47;53.45;100745.29;104738;1258;66174;-47
2023/04/29 03:13:26;;;;;;;4.50;1.10;;;;;;;7.43;53.52;100746.37;104517;1256;59845;-48
2023/04/29 03:15:53;;;;;;;6.50;2.90;;;;;;;7.38;53.64;100749.10;104551;1257;59663;-47
2023/04/29 03:18:20;;;;;;;5.50;1.70;;;;;;;7.34;53.76;100755.48;104428;1256;73440;-47
2023/04/29 03:20:47;;;;;;;8.60;2.80;;;;;;;7.31;53.88;100760.21;104686;1254;63709;-47
2023/04/29 03:23:14;;;;;;;4.50;1.40;;;;;;;7.27;54.04;100760.95;105592;1256;66010;-47
2023/04/29 03:25:41;;;;;;;4.20;1.10;;;;;;;7.27;54.18;100760.80;106290;1254;59535;-48
2023/04/29 03:28:08;;;;;;;5.00;2.60;;;;;;;7.29;54.45;100759.65;104867;1254;59823;-48
2023/04/29 03:30:36;;;;;;;6.90;2.40;;;;;;;7.31;54.65;100765.27;104746;1253;66501;-47
2023/04/29 03:33:03;;;;;;;2.60;0.60;;;;;;;7.40;54.61;100764.71;104887;1257;63877;-47
2023/04/29 03:35:30;;;;;;;3.30;1.10;;;;;;;7.52;54.65;100762.21;104670;1253;65884;-47
2023/04/29 03:38:33;;;;;;;5.80;2.70;;;;;;;7.67;54.68;100767.80;104369;1262;59815;-47
2023/04/29 03:41:00;;;;;;;10.10;2.90;;;;;;;7.76;54.58;100769.66;104626;1254;59724;-47
2023/04/29 03:43:27;;;;;;;7.70;2.30;;;;;;;7.81;54.56;100771.44;104813;1260;66368;-48
2023/04/29 03:45:54;;;;;;;7.10;2.90;;;;;;;7.88;54.64;100774.70;104739;1260;62797;-46
2023/04/29 03:48:22;;;;;;;6.70;1.80;;;;;;;7.94;54.49;100772.71;105052;1259;65018;-46
2023/04/29 03:50:50;;;;;;;8.10;3.60;;;;;;;8.00;53.82;100771.48;106321;1254;59679;-47
2023/04/29 03:53:17;;;;;;;9.10;4.00;;;;;;;8.04;51.96;100770.54;105248;1259;59583;-47
2023/04/29 03:55:45;;;;;;;6.30;3.10;;;;;;;8.09;51.28;100772.86;105776;1253;66609;-47
2023/04/29 03:58:12;;;;;;;3.30;1.00;;;;;;;8.13;51.14;100769.28;105673;1259;64308;-47
2023/04/29 04:00:39;;;;;;;7.50;2.80;;;;;;;8.19;51.25;100774.31;105229;1256;66009;-45
2023/04/29 04:03:09;;;;;;;7.50;3.50;;;;;;;8.23;50.99;100779.09;105269;1255;59808;-47
2023/04/29 04:05:37;;;;;;;6.00;1.10;;;;;;;8.27;49.75;100772.39;105332;1253;59602;-47
2023/04/29 04:08:07;;;;;;;7.50;3.40;;;;;;;8.31;49.65;100775.48;105270;1257;65404;-48
2023/04/29 04:11:07;;;;;;;9.60;4.30;;;;;;;8.35;48.60;100777.68;105369;1258;62466;-47
2023/04/29 04:13:36;;;;;;;7.90;4.20;;;;;;;8.39;47.83;100779.52;105937;1254;64853;-46
2023/04/29 04:16:04;;;;;;;6.00;2.30;;;;;;;8.41;47.75;100781.11;106876;1254;62590;-49
2023/04/29 04:18:31;;;;;;;10.60;5.40;;;;;;;8.43;47.30;100784.87;106050;1253;59691;-49
2023/04/29 04:21:04;;;;;;;10.70;6.00;;;;;;;8.46;47.01;100781.19;105165;1258;66434;-47
2023/04/29 04:23:31;;;;;;;9.90;5.80;;;;;;;8.48;46.45;100784.56;105292;1259;62581;-46
2023/04/29 04:26:00;;;;;;;11.10;5.80;;;;;;;8.51;46.08;100785.23;107695;1257;66541;-47
2023/04/29 04:28:59;;;;;;;10.10;6.00;;;;;;;8.55;45.99;100789.00;104936;1257;59557;-46
2023/04/29 04:31:38;;;;;;;6.40;2.40;;;;;;;8.59;46.42;100790.52;106402;1257;59718;-47
2023/04/29 04:34:06;;;;;;;11.60;6.20;;;;;;;8.63;46.49;100788.13;106722;1259;67064;-46
2023/04/29 04:36:33;;;;;;;10.40;5.40;;;;;;;8.68;46.34;100786.08;105125;1254;64029;-48
2023/04/29 04:39:00;;;;;;;7.80;4.40;;;;;;;8.72;46.14;100788.37;105180;1260;65821;-45
2023/04/29 04:41:30;;;;;;;7.90;4.30;;;;;;;8.77;45.31;100790.38;105210;1253;59747;-46
2023/04/29 04:43:57;;;;;;;8.10;4.20;;;;;;;8.80;45.26;100791.41;105340;1257;59564;-47
2023/04/29 04:46:39;;;;;;;6.90;3.30;;;;;;;8.82;45.18;100791.59;105169;1255;65964;-50
2023/04/29 04:49:11;;;;;;;7.10;3.80;;;;;;;8.85;45.76;100794.20;105219;1257;64027;-47
2023/04/29 04:51:44;;;;;;;3.90;1.90;;;;;;;8.89;45.68;100795.14;105303;1254;66371;-48
2023/04/29 04:54:11;;;;;;;8.40;2.70;;;;;;;8.93;45.43;100792.11;105181;1256;60795;-47
2023/04/29 04:56:38;;;;;;;6.00;2.40;;;;;;;8.97;45.17;100795.15;105183;1253;59718;-47
2023/04/29 04:59:05;;;;;;;6.10;2.30;;;;;;;8.99;45.07;100794.30;107571;1253;66521;-47
2023/04/29 05:01:34;;;;;;;4.90;2.00;;;;;;;9.02;44.27;100792.92;106033;1254;63818;-47
2023/04/29 05:04:02;;;;;;;4.60;1.70;;;;;;;9.03;43.62;100789.51;105207;1255;66208;-47
2023/04/29 05:06:29;;;;;;;5.60;2.10;;;;;;;9.03;43.58;100789.33;105224;1257;60041;-46
2023/04/29 05:08:56;;;;;;;10.20;2.50;;;;;;;9.04;43.88;100791.02;105157;1257;61101;-46
2023/04/29 05:11:23;;;;;;;3.90;1.60;;;;;;;9.06;44.00;100794.20;107695;1256;66742;-47
2023/04/29 05:14:09;;;;;;;2.80;0.90;;;;;;;9.12;43.40;100796.79;104927;1259;63686;-48
2023/04/29 05:16:36;;;;;;;5.30;1.70;;;;;;;9.15;43.11;100798.67;104632;1259;65294;-48
2023/04/29 05:19:04;;;;;;;6.00;2.20;;;;;;;9.20;43.11;100798.86;105610;1253;59641;-49
2023/04/29 05:21:34;;;;;;;5.90;1.90;;;;;;;9.25;43.19;100799.43;105143;1253;59644;-48
2023/04/29 05:24:01;;;;;;;5.60;2.10;;;;;;;9.30;43.29;100795.94;105055;1253;66844;-47
2023/04/29 05:26:28;;;;;;;4.50;1.90;;;;;;;9.35;43.42;100799.06;104744;1253;63973;-47
2023/04/29 05:28:58;;;;;;;10.00;2.20;;;;;;;9.40;42.97;100795.59;105875;1253;66503;-47
2023/04/29 05:31:27;;;;;;;4.70;1.90;;;;;;;9.47;42.63;100797.77;105160;1254;59681;-47
2023/04/29 05:33:54;;;;;;;6.40;2.10;;;;;;;9.54;42.55;100800.95;105171;1253;59516;-47
2023/04/29 05:36:21;;;;;;;4.50;1.50;;;;;;;9.61;42.69;100799.55;105270;1253;66475;-47
2023/04/29 05:38:48;;;;;;;4.70;1.50;;;;;;;9.70;42.64;100801.95;105078;1254;63594;-48
2023/04/29 05:41:16;;;;;;;5.90;2.00;;;;;;;9.79;42.39;100798.72;105233;1254;66477;-49
2023/04/29 05:44:09;;;;;;;5.70;1.50;;;;;;;9.89;41.25;100801.14;108918;1252;58091;-49
2023/04/29 05:46:36;;;;;;;5.00;1.70;;;;;;;9.99;40.90;100798.54;107431;1253;59560;-50
2023/04/29 05:49:03;;;;;;;4.50;1.80;;;;;;;10.08;40.11;100802.80;104869;1255;66605;-47
2023/04/29 05:51:31;;;;;;;4.40;1.50;;;;;;;10.13;40.77;100795.93;104667;1254;63752;-47
2023/04/29 05:54:00;;;;;;;4.70;1.30;;;;;;;10.19;40.91;100794.77;104798;1254;64873;-49
2023/04/29 05:56:27;;;;;;;4.40;1.50;;;;;;;10.29;40.87;100801.85;107826;1256;59225;-46
2023/04/29 05:58:54;;;;;;;3.80;1.40;;;;;;;10.39;40.86;100802.20;104643;1259;60378;-47
2023/04/29 06:01:22;;;;;;;6.50;1.50;;;;;;;10.49;40.49;100804.77;104612;1253;66439;-47
2023/04/29 06:03:49;;;;;;;3.50;1.50;;;;;;;10.59;39.97;100799.34;105124;1257;64289;-47
2023/04/29 06:06:43;;;;;;;4.10;1.50;;;;;;;10.69;38.96;100797.77;106845;1253;66455;-54
2023/04/29 06:09:17;;;;;;;5.60;1.90;;;;;;;10.78;38.93;100797.59;104638;1259;59749;-47
2023/04/29 06:11:54;;;;;;;7.80;1.50;;;;;;;10.89;38.78;100795.92;104781;1253;59718;-49
2023/04/29 06:14:21;;;;;;;5.20;1.20;;;;;;;11.01;37.12;100793.55;104749;1253;66516;-52
2023/04/29 06:16:48;;;;;;;4.40;1.30;;;;;;;11.11;36.60;100793.86;104767;1256;72970;-48
2023/04/29 06:19:15;;;;;;;9.50;1.60;;;;;;;11.20;36.72;100797.98;105238;1254;65020;-49
2023/04/29 06:21:42;;;;;;;4.20;1.00;;;;;;;11.27;35.34;100796.55;104752;1259;59758;-46
2023/04/29 06:24:08;;;;;;;5.20;1.20;;;;;;;11.33;34.60;100798.35;104549;1253;59367;-47
2023/04/29 06:26:36;;;;;;;5.90;0.80;;;;;;;11.40;33.65;100796.46;104652;1253;66781;-47
2023/04/29 06:29:03;;;;;;;2.50;0.70;;;;;;;11.46;32.85;100800.15;104662;1259;63816;-47
2023/04/29 06:31:30;;;;;;;4.90;0.80;;;;;;;11.51;33.01;100802.23;105034;1253;66329;-47
2023/04/29 06:34:01;;;;;;;3.60;0.90;;;;;;;11.56;33.48;100796.42;104881;1253;59740;-47
2023/04/29 06:36:29;;;;;;;4.30;1.20;;;;;;;11.61;32.47;100793.39;104837;1259;59549;-47
2023/04/29 06:39:15;;;;;;;3.80;1.00;;;;;;;11.65;32.76;100799.55;104964;1253;66778;-46
2023/04/29 06:41:52;;;;;;;3.80;1.30;;;;;;;11.70;32.98;100803.02;105207;1253;63638;-46
2023/04/29 06:44:37;;;;;;;2.90;0.90;;;;;;;11.77;32.96;100804.09;105132;1253;66764;-47
2023/04/29 06:47:23;;;;;;;4.40;1.20;;;;;;;11.83;32.87;100801.20;104807;1253;60430;-49
2023/04/29 06:50:04;;;;;;;4.10;1.20;;;;;;;11.92;33.46;100801.23;104732;1254;59500;-46
2023/04/29 06:52:32;;;;;;;3.20;1.00;;;;;;;11.99;32.03;100796.47;105671;1257;67288;-48
2023/04/29 06:54:59;;;;;;;5.90;0.90;;;;;;;12.04;32.14;100802.71;104949;1255;64138;-48
2023/04/29 06:57:26;;;;;;;2.60;0.80;;;;;;;12.08;31.32;100803.81;104884;1253;66270;-49
2023/04/29 06:59:53;;;;;;;2.50;0.80;;;;;;;12.11;30.18;100794.98;104752;1257;60492;-45
2023/04/29 07:02:20;;;;;;;3.00;0.80;;;;;;;12.15;30.06;100793.37;107714;1253;60826;-49
2023/04/29 07:04:48;;;;;;;6.60;1.20;;;;;;;12.22;30.63;100800.77;104687;1259;68596;-47
2023/04/29 07:07:16;;;;;;;5.90;1.00;;;;;;;12.29;31.29;100801.61;104922;1257;63482;-48
2023/04/29 07:09:42;;;;;;;4.40;1.00;;;;;;;12.33;30.67;100802.33;104836;1253;66198;-48
2023/04/29 07:12:09;;;;;;;5.30;1.20;;;;;;;12.36;30.71;100802.63;104624;1253;60462;-47
2023/04/29 07:14:36;;;;;;;7.00;1.30;;;;;;;12.38;29.82;100802.48;104566;1254;60355;-47
2023/04/29 07:17:03;;;;;;;4.80;1.30;;;;;;;12.39;30.26;100806.63;105585;1257;66951;-46
2023/04/29 07:19:31;;;;;;;6.50;1.30;;;;;;;12.40;31.03;100802.97;105134;1257;63643;-46
2023/04/29 07:21:58;;;;;;;4.40;1.00;;;;;;;12.43;30.40;100801.16;105222;1254;65901;-46
2023/04/29 07:24:25;;;;;;;3.10;1.00;;;;;;;12.43;30.61;100804.53;105009;1253;60335;-53
2023/04/29 07:26:52;;;;;;;4.00;1.00;;;;;;;12.40;30.87;100806.86;104782;1252;60527;-47
2023/04/29 07:29:19;;;;;;;3.70;1.10;;;;;;;12.40;30.94;100807.90;104791;1253;66497;-48
2023/04/29 07:31:46;;;;;;;3.90;1.10;;;;;;;12.44;31.19;100811.79;104746;1253;65648;-53
2023/04/29 07:34:13;;;;;;;4.00;1.00;;;;;;;12.52;31.64;100811.94;107059;1258;66617;-48
2023/04/29 07:36:40;;;;;;;4.00;1.10;;;;;;;12.58;30.72;100811.36;104733;1254;60470;-48
2023/04/29 07:39:07;;;;;;;3.80;1.00;;;;;;;12.62;30.21;100806.29;104752;1253;60553;-48
2023/04/29 07:41:34;;;;;;;3.70;0.90;;;;;;;12.66;30.98;100801.76;104804;1252;66021;-47
2023/04/29 07:44:01;;;;;;;3.60;1.10;;;;;;;12.70;31.49;100800.21;105824;1253;62566;-48
2023/04/29 07:46:28;;;;;;;12.00;1.10;;;;;;;12.73;31.08;100796.11;104672;1252;66032;-48
2023/04/29 07:48:57;;;;;;;4.20;1.10;;;;;;;12.74;29.94;100792.66;104666;1259;60413;-49
2023/04/29 07:51:27;;;;;;;3.80;1.10;;;;;;;12.77;29.94;100798.45;105244;1257;60476;-50
2023/04/29 07:53:54;;;;;;;5.00;1.00;;;;;;;12.79;30.22;100799.12;105029;1253;67139;-49
2023/04/29 07:56:22;;;;;;;4.40;1.00;;;;;;;12.83;30.36;100791.36;104890;1253;63810;-46
2023/04/29 07:58:49;;;;;;;3.90;1.10;;;;;;;12.84;29.91;100790.80;106182;1253;65961;-48
2023/04/29 08:01:16;;;;;;;2.60;0.80;;;;;;;12.87;31.14;100793.92;104830;1253;60678;-46
2023/04/29 08:03:44;;;;;;;3.90;1.00;;;;;;;12.93;30.81;100793.96;104823;1257;60390;-47
2023/04/29 08:06:12;;;;;;;3.80;1.00;;;;;;;12.98;30.05;100788.36;105334;1258;67630;-48
2023/04/29 08:08:41;;;;;;;3.40;0.80;;;;;;;13.01;29.28;100785.67;105394;1254;63361;-47
2023/04/29 08:11:17;;;;;;;4.20;0.80;;;;;;;13.02;29.24;100785.77;106528;1253;66500;-48
2023/04/29 08:13:44;;;;;;;3.90;1.00;;;;;;;13.04;29.60;100790.90;104707;1254;60856;-48
2023/04/29 08:16:11;;;;;;;4.30;1.10;;;;;;;13.06;29.62;100787.58;104860;1257;60404;-49
2023/04/29 08:18:39;;;;;;;3.50;1.00;;;;;;;13.08;29.23;100782.50;106442;1257;67679;-49
2023/04/29 08:21:06;;;;;;;3.90;0.90;;;;;;;13.11;30.40;100783.29;105500;1256;62426;-47
2023/04/29 08:23:34;;;;;;;3.30;1.10;;;;;;;13.17;29.53;100785.41;104723;1253;65226;-47
2023/04/29 08:26:02;;;;;;;4.40;1.30;;;;;;;13.21;29.43;100779.21;107371;1256;60531;-47
2023/04/29 08:28:29;;;;;;;4.70;1.20;;;;;;;13.27;29.02;100779.83;105210;1257;60524;-51
2023/04/29 08:30:56;;;;;;;3.20;0.90;;;;;;;13.31;29.96;100778.27;105111;1253;66018;-46
2023/04/29 08:33:23;;;;;;;3.80;1.10;;;;;;;13.35;29.62;100777.02;105127;1254;63710;-46
2023/04/29 08:35:57;;;;;;;3.40;1.00;;;;;;;13.38;29.85;100777.98;104898;1253;66315;-47
2023/04/29 08:38:24;;;;;;;4.50;1.20;;;;;;;13.43;30.25;100780.59;109031;1253;58640;-48
2023/04/29 08:40:51;;;;;;;3.50;1.20;;;;;;;13.51;30.64;100778.34;105330;1257;60450;-49
2023/04/29 08:43:18;;;;;;;4.30;1.20;;;;;;;13.59;30.51;100773.36;104747;1256;66251;-49
2023/04/29 08:45:45;;;;;;;4.00;1.10;;;;;;;13.67;30.39;100774.52;104730;1253;63743;-48
2023/04/29 08:48:12;;;;;;;2.80;0.90;;;;;;;13.71;29.78;100775.33;105384;1253;65001;-48
2023/04/29 08:50:40;;;;;;;3.80;1.00;;;;;;;13.76;29.53;100776.02;108085;1253;58394;-47
2023/04/29 08:53:08;;;;;;;4.90;1.10;;;;;;;13.80;29.48;100778.85;107230;1254;60890;-48
2023/04/29 08:55:39;;;;;;;2.60;0.80;;;;;;;13.84;29.75;100782.48;104951;1253;66295;-46
2023/04/29 08:58:06;;;;;;;5.40;1.10;;;;;;;13.91;29.48;100781.88;105563;1253;64395;-48
2023/04/29 09:00:34;;;;;;;3.30;1.00;;;;;;;13.98;29.62;100779.20;104737;1255;74970;-46
2023/04/29 09:03:18;;;;;;;5.20;1.10;;;;;;;13.98;29.52;100775.64;105676;1253;60454;-45
2023/04/29 09:05:49;;;;;;;7.60;1.30;;;;;;;14.00;29.43;100777.04;104769;1259;60531;-46
2023/04/29 09:08:16;;;;;;;3.00;1.10;;;;;;;14.01;28.89;100777.38;107200;1254;67475;-46
2023/04/29 09:10:43;;;;;;;3.60;1.10;;;;;;;14.01;28.66;100775.92;104911;1259;63603;-47
2023/04/29 09:13:27;;;;;;;2.40;0.80;;;;;;;14.02;29.43;100774.92;104784;1257;65016;-46
2023/04/29 09:15:54;;;;;;;3.70;1.00;;;;;;;14.09;30.21;100770.42;104949;1257;60415;-48
2023/04/29 09:18:41;;;;;;;2.80;1.00;;;;;;;14.19;29.86;100767.77;105173;1253;60326;-48
2023/04/29 09:21:27;;;;;;;5.80;1.50;;;;;;;14.27;29.44;100763.86;105527;1257;67120;-49
2023/04/29 09:23:55;;;;;;;;;;;;;;;14.35;29.36;100764.27;106824;1253;63824;-49
2023/04/29 09:26:23;;;;;;;5.90;1.00;;;;;;;14.40;29.05;100763.28;104734;1258;66233;-46
2023/04/29 09:29:08;;;;;;;3.80;1.40;;;;;;;14.41;29.03;100761.75;107847;1257;60543;-48
2023/04/29 09:31:39;;;;;;;3.40;1.00;;;;;;;14.45;29.23;100758.73;104781;1257;60356;-47
2023/04/29 09:34:06;;;;;;;3.90;0.90;;;;;;;14.53;29.21;100753.66;107265;1253;67094;-46
2023/04/29 09:36:40;;;;;;;3.70;0.90;;;;;;;14.60;29.18;100755.48;104705;1253;63273;-46
2023/04/29 09:39:11;;;;;;;4.40;1.40;;;;;;;14.64;28.42;100754.57;106575;1254;65726;-46
2023/04/29 09:41:41;;;;;;;4.70;1.10;;;;;;;14.64;28.17;100756.68;104720;1253;60550;-45
2023/04/29 09:44:09;;;;;;;4.30;1.10;;;;;;;14.63;27.74;100757.86;104666;1258;59934;-47
2023/04/29 09:46:36;;;;;;;2.60;0.90;;;;;;;14.59;28.04;100754.18;108939;1253;67282;-48
2023/04/29 09:49:03;;;;;;;3.80;1.00;;;;;;;14.57;28.39;100754.81;106095;1253;63437;-46
2023/04/29 09:51:31;;;;;;;3.40;1.30;;;;;;;14.60;28.50;100755.14;105414;1257;73626;-46
2023/04/29 09:54:00;;;;;;;3.10;0.90;;;;;;;14.64;28.50;100751.35;104994;1253;60558;-54
2023/04/29 09:56:30;;;;;;;5.00;1.30;;;;;;;14.72;29.14;100747.66;104952;1253;60476;-55
2023/04/29 09:59:07;;;;;;;3.10;1.20;;;;;;;14.84;29.28;100738.14;104814;1258;68104;-51
2023/04/29 10:01:34;;;;;;;7.30;1.10;;;;;;;14.94;28.99;100738.77;106452;1253;63757;-52
2023/04/29 10:04:01;;;;;;;5.30;1.10;;;;;;;15.00;28.64;100736.09;104818;1258;66197;-54
2023/04/29 10:06:28;;;;;;;2.90;0.90;;;;;;;15.07;28.53;100738.83;104758;1253;60546;-53
2023/04/29 10:08:56;;;;;;;3.70;0.90;;;;;;;15.14;27.99;100735.16;104770;1254;60860;-53
2023/04/29 10:11:23;;;;;;;6.40;1.00;;;;;;;15.17;28.09;100735.06;108965;1253;66242;-52
2023/04/29 10:13:49;;;;;;;3.90;0.90;;;;;;;15.18;28.87;100733.35;109024;1253;62788;-55
2023/04/29 10:16:29;;;;;;;7.30;1.10;;;;;;;15.26;28.68;100735.05;108986;1253;66187;-48
2023/04/29 10:18:59;;;;;;;2.70;0.70;;;;;;;15.37;28.17;100734.02;106764;1255;60533;-46
2023/04/29 10:21:32;;;;;;;4.00;0.90;;;;;;;15.46;28.27;100730.35;104923;1253;60689;-46
2023/04/29 10:24:00;;;;;;;4.80;1.10;;;;;;;15.50;28.02;100727.02;104881;1253;67230;-46
2023/04/29 10:26:28;;;;;;;3.00;1.00;;;;;;;15.50;27.59;100720.62;105972;1257;62943;-46
2023/04/29 10:28:55;;;;;;;4.10;1.10;;;;;;;15.47;27.47;100720.91;105080;1253;66365;-46
2023/04/29 10:31:25;;;;;;;5.10;1.20;;;;;;;15.45;28.13;100720.76;107972;1257;59485;-47
2023/04/29 10:33:54;;;;;;;4.40;1.10;;;;;;;15.47;28.39;100720.27;106707;1259;59306;-46
2023/04/29 10:36:22;;;;;;;4.50;1.20;;;;;;;15.51;28.71;100716.69;105298;1257;67255;-48
2023/04/29 10:38:52;;;;;;;4.80;1.20;;;;;;;15.57;28.11;100718.22;105289;1253;63847;-48
2023/04/29 10:41:24;;;;;;;3.30;0.90;;;;;;;15.61;27.80;100714.85;105231;1259;65150;-47
2023/04/29 10:43:51;;;;;;;3.40;0.90;;;;;;;15.66;28.13;100710.63;107123;1254;60452;-48
2023/04/29 10:46:19;;;;;;;4.90;1.20;;;;;;;15.74;27.34;100709.11;105273;1257;60387;-45
2023/04/29 10:48:46;;;;;;;4.20;1.30;;;;;;;15.78;26.77;100707.48;106457;1253;74992;-47
2023/04/29 10:51:30;;;;;;;3.80;1.00;;;;;;;15.76;26.63;100701.20;104835;1253;64345;-46
2023/04/29 10:54:08;;;;;;;3.60;1.10;;;;;;;15.77;27.27;100701.63;105124;1253;65131;-46
2023/04/29 10:56:38;;;;;;;2.50;0.90;;;;;;;15.83;27.40;100701.37;105405;1253;61010;-47
2023/04/29 10:59:09;;;;;;;4.70;1.10;;;;;;;15.89;27.34;100699.61;108385;1253;65573;-47
2023/04/29 11:01:52;;;;;;;3.30;1.00;;;;;;;15.93;27.15;100695.14;107498;1256;67264;-47
2023/04/29 11:04:22;;;;;;;6.60;1.30;;;;;;;15.99;27.58;100694.70;105340;1258;63760;-46
2023/04/29 11:06:53;;;;;;;6.50;1.30;;;;;;;16.05;27.62;100697.35;105106;1259;66730;-46
2023/04/29 11:09:27;;;;;;;3.60;1.00;;;;;;;16.10;27.14;100694.84;107106;1253;59333;-46
2023/04/29 11:12:02;;;;;;;4.60;1.10;;;;;;;16.14;27.65;100693.73;105872;1257;60359;-48
2023/04/29 11:14:29;;;;;;;3.60;1.00;;;;;;;16.20;27.48;100688.79;105165;1253;66227;-47
2023/04/29 11:16:57;;;;;;;4.80;1.60;;;;;;;16.22;26.74;100686.81;105436;1253;63712;-47
2023/04/29 11:19:43;;;;;;;3.20;0.90;;;;;;;16.17;26.91;100683.59;105547;1253;65858;-46
2023/04/29 11:22:13;;;;;;;4.30;1.00;;;;;;;16.14;27.57;100679.92;106649;1259;60542;-47
2023/04/29 11:24:51;;;;;;;3.50;1.10;;;;;;;16.17;27.23;100678.28;105413;1259;60417;-47
2023/04/29 11:27:21;;;;;;;5.00;1.30;;;;;;;16.21;27.41;100681.27;105803;1254;66073;-47
2023/04/29 11:29:49;;;;;;;4.80;1.40;;;;;;;16.24;27.53;100683.28;105278;1254;63304;-47
2023/04/29 11:32:20;;;;;;;5.60;1.30;;;;;;;16.26;27.41;100677.70;104906;1253;66429;-47
2023/04/29 11:34:47;;;;;;;4.60;1.30;;;;;;;16.30;27.49;100678.04;104919;1260;60558;-48
2023/04/29 11:37:25;;;;;;;3.20;1.00;;;;;;;16.35;27.02;100677.72;105421;1254;60528;-46